sensor_id;sensor_type;location;lat;lon;timestamp;pressure;altitude;pressure_sealevel;temperature;humidity
8585;BME280;7180;52.742;11.420;2023-05-07T00:00:04;101591.47;;;9.21;97.14
8585;BME280;7180;52.742;11.420;2023-05-07T00:02:32;101601.94;;;9.21;97.13
8585;BME280;7180;52.742;11.420;2023-05-07T00:04:58;101607.00;;;9.27;97.53
8585;BME280;7180;52.742;11.420;2023-05-07T00:07:23;101600.47;;;9.37;97.15
8585;BME280;7180;52.742;11.420;2023-05-07T00:09:49;101556.19;;;9.28;96.57
8585;BME280;7180;52.742;11.420;2023-05-07T00:12:14;101571.06;;;9.28;96.42
8585;BME280;7180;52.742;11.420;2023-05-07T00:14:39;101560.44;;;9.09;96.50
8585;BME280;7180;52.742;11.420;2023-05-07T00:17:05;101574.69;;;9.25;96.67
8585;BME280;7180;52.742;11.420;2023-05-07T00:19:30;101569.66;;;9.19;96.85
8585;BME280;7180;52.742;11.420;2023-05-07T00:21:55;101578.47;;;9.18;96.73
8585;BME280;7180;52.742;11.420;2023-05-07T00:24:21;101567.16;;;9.16;96.63
8585;BME280;7180;52.742;11.420;2023-05-07T00:26:46;101552.91;;;9.23;96.05
8585;BME280;7180;52.742;11.420;2023-05-07T00:29:12;101539.31;;;9.12;95.76
8585;BME280;7180;52.742;11.420;2023-05-07T00:31:37;101544.22;;;9.21;95.67
8585;BME280;7180;52.742;11.420;2023-05-07T00:34:02;101549.00;;;9.33;95.40
8585;BME280;7180;52.742;11.420;2023-05-07T00:36:28;101537.69;;;9.31;95.14
8585;BME280;7180;52.742;11.420;2023-05-07T00:38:54;101549.00;;;9.33;95.27
8585;BME280;7180;52.742;11.420;2023-05-07T00:41:20;101547.66;;;9.23;95.77
8585;BME280;7180;52.742;11.420;2023-05-07T00:43:46;101554.59;;;9.24;95.85
8585;BME280;7180;52.742;11.420;2023-05-07T00:46:13;101578.22;;;9.24;96.54
8585;BME280;7180;52.742;11.420;2023-05-07T00:48:38;101575.59;;;9.24;96.16
8585;BME280;7180;52.742;11.420;2023-05-07T00:51:03;101591.34;;;9.24;96.46
8585;BME280;7180;52.742;11.420;2023-05-07T00:53:29;101593.97;;;9.24;96.87
8585;BME280;7180;52.742;11.420;2023-05-07T00:55:55;101606.75;;;9.33;96.62
8585;BME280;7180;52.742;11.420;2023-05-07T00:58:21;101571.25;;;9.23;96.34
8585;BME280;7180;52.742;11.420;2023-05-07T01:00:46;101598.44;;;9.22;96.59
8585;BME280;7180;52.742;11.420;2023-05-07T01:03:11;101592.19;;;9.25;96.69
8585;BME280;7180;52.742;11.420;2023-05-07T01:05:37;101581.53;;;9.29;96.43
8585;BME280;7180;52.742;11.420;2023-05-07T01:08:04;101551.28;;;9.19;96.09
8585;BME280;7180;52.742;11.420;2023-05-07T01:10:30;101580.75;;;9.27;96.44
8585;BME280;7180;52.742;11.420;2023-05-07T01:12:57;101591.13;;;9.30;96.09
8585;BME280;7180;52.742;11.420;2023-05-07T01:15:23;101557.22;;;9.24;95.89
8585;BME280;7180;52.742;11.420;2023-05-07T01:17:48;101570.81;;;9.12;96.36
8585;BME280;7180;52.742;11.420;2023-05-07T01:20:14;101600.34;;;9.17;97.22
8585;BME280;7180;52.742;11.420;2023-05-07T01:22:42;101608.34;;;9.14;97.13
8585;BME280;7180;52.742;11.420;2023-05-07T01:25:08;101631.00;;;9.40;97.28
8585;BME280;7180;52.742;11.420;2023-05-07T01:27:34;101594.66;;;9.29;96.70
8585;BME280;7180;52.742;11.420;2023-05-07T01:30:00;101582.44;;;9.28;97.07
8585;BME280;7180;52.742;11.420;2023-05-07T01:32:36;101600.25;;;9.20;97.18
8585;BME280;7180;52.742;11.420;2023-05-07T01:35:05;101610.84;;;9.17;97.35
8585;BME280;7180;52.742;11.420;2023-05-07T01:37:32;101643.81;;;9.24;98.27
8585;BME280;7180;52.742;11.420;2023-05-07T01:39:58;101636.13;;;9.20;98.21
8585;BME280;7180;52.742;11.420;2023-05-07T01:42:24;101644.81;;;9.22;98.25
8585;BME280;7180;52.742;11.420;2023-05-07T01:44:49;101628.41;;;9.15;98.00
8585;BME280;7180;52.742;11.420;2023-05-07T01:47:15;101650.06;;;9.22;98.23
8585;BME280;7180;52.742;11.420;2023-05-07T01:49:41;101647.38;;;9.23;98.45
8585;BME280;7180;52.742;11.420;2023-05-07T01:52:07;101651.69;;;9.24;98.74
8585;BME280;7180;52.742;11.420;2023-05-07T01:54:32;101662.59;;;9.37;98.90
8585;BME280;7180;52.742;11.420;2023-05-07T01:56:57;101653.41;;;9.25;98.64
8585;BME280;7180;52.742;11.420;2023-05-07T01:59:23;101642.25;;;9.20;98.39
8585;BME280;7180;52.742;11.420;2023-05-07T02:01:48;101660.50;;;9.23;98.62
8585;BME280;7180;52.742;11.420;2023-05-07T02:04:13;101663.69;;;9.31;98.63
8585;BME280;7180;52.742;11.420;2023-05-07T02:06:39;101652.28;;;9.32;98.72
8585;BME280;7180;52.742;11.420;2023-05-07T02:09:04;101646.34;;;9.27;98.39
8585;BME280;7180;52.742;11.420;2023-05-07T02:11:29;101662.56;;;9.38;98.64
8585;BME280;7180;52.742;11.420;2023-05-07T02:13:55;101644.41;;;9.32;98.54
8585;BME280;7180;52.742;11.420;2023-05-07T02:16:20;101648.22;;;9.24;98.76
8585;BME280;7180;52.742;11.420;2023-05-07T02:18:46;101651.66;;;9.26;98.88
8585;BME280;7180;52.742;11.420;2023-05-07T02:21:12;101650.13;;;9.20;98.90
8585;BME280;7180;52.742;11.420;2023-05-07T02:23:37;101659.00;;;9.16;98.86
8585;BME280;7180;52.742;11.420;2023-05-07T02:26:03;101673.94;;;9.14;99.21
8585;BME280;7180;52.742;11.420;2023-05-07T02:28:29;101677.25;;;9.19;99.33
8585;BME280;7180;52.742;11.420;2023-05-07T02:30:54;101672.19;;;9.15;99.47
8585;BME280;7180;52.742;11.420;2023-05-07T02:33:19;101690.38;;;9.19;99.54
8585;BME280;7180;52.742;11.420;2023-05-07T02:35:44;101682.69;;;9.15;99.95
8585;BME280;7180;52.742;11.420;2023-05-07T02:38:10;101691.06;;;9.24;99.71
8585;BME280;7180;52.742;11.420;2023-05-07T02:40:36;101691.28;;;9.18;100.00
8585;BME280;7180;52.742;11.420;2023-05-07T02:43:04;101681.69;;;9.17;99.78
8585;BME280;7180;52.742;11.420;2023-05-07T02:45:29;101680.13;;;9.13;100.00
8585;BME280;7180;52.742;11.420;2023-05-07T02:47:54;101704.97;;;9.26;99.94
8585;BME280;7180;52.742;11.420;2023-05-07T02:50:20;101690.38;;;9.19;100.00
8585;BME280;7180;52.742;11.420;2023-05-07T02:52:45;101687.13;;;9.13;100.00
8585;BME280;7180;52.742;11.420;2023-05-07T02:55:10;101697.19;;;9.00;100.00
8585;BME280;7180;52.742;11.420;2023-05-07T02:57:36;101699.69;;;9.03;100.00
8585;BME280;7180;52.742;11.420;2023-05-07T03:00:10;101711.00;;;9.05;100.00
8585;BME280;7180;52.742;11.420;2023-05-07T03:02:36;101703.06;;;9.07;100.00
8585;BME280;7180;52.742;11.420;2023-05-07T03:05:01;101692.31;;;9.14;100.00
8585;BME280;7180;52.742;11.420;2023-05-07T03:07:26;101683.47;;;9.17;100.00
8585;BME280;7180;52.742;11.420;2023-05-07T03:09:52;101682.63;;;9.16;100.00
8585;BME280;7180;52.742;11.420;2023-05-07T03:12:17;101688.34;;;9.27;100.00
8585;BME280;7180;52.742;11.420;2023-05-07T03:14:42;101667.31;;;9.04;100.00
8585;BME280;7180;52.742;11.420;2023-05-07T03:17:07;101670.50;;;9.12;100.00
8585;BME280;7180;52.742;11.420;2023-05-07T03:19:33;101639.34;;;9.03;99.54
8585;BME280;7180;52.742;11.420;2023-05-07T03:21:58;101664.94;;;9.21;99.59
8585;BME280;7180;52.742;11.420;2023-05-07T03:24:23;101629.34;;;9.14;99.05
8585;BME280;7180;52.742;11.420;2023-05-07T03:26:48;101644.16;;;9.15;98.90
8585;BME280;7180;52.742;11.420;2023-05-07T03:29:14;101644.16;;;9.15;99.24
8585;BME280;7180;52.742;11.420;2023-05-07T03:31:39;101664.06;;;9.21;99.24
8585;BME280;7180;52.742;11.420;2023-05-07T03:34:04;101652.75;;;9.20;99.28
8585;BME280;7180;52.742;11.420;2023-05-07T03:36:30;101678.66;;;9.29;99.46
8585;BME280;7180;52.742;11.420;2023-05-07T03:38:55;101676.91;;;9.28;99.08
8585;BME280;7180;52.742;11.420;2023-05-07T03:41:20;101674.19;;;9.31;99.42
8585;BME280;7180;52.742;11.420;2023-05-07T03:43:46;101671.66;;;9.28;99.17
8585;BME280;7180;52.742;11.420;2023-05-07T03:46:11;101653.53;;;9.22;98.84
8585;BME280;7180;52.742;11.420;2023-05-07T03:48:36;101646.69;;;9.18;98.96
8585;BME280;7180;52.742;11.420;2023-05-07T03:51:01;101642.56;;;9.11;98.69
8585;BME280;7180;52.742;11.420;2023-05-07T03:53:27;101654.56;;;9.18;98.65
8585;BME280;7180;52.742;11.420;2023-05-07T03:55:52;101644.91;;;9.19;98.61
8585;BME280;7180;52.742;11.420;2023-05-07T03:58:17;101636.47;;;9.11;98.73
8585;BME280;7180;52.742;11.420;2023-05-07T04:00:43;101658.06;;;9.17;98.84
8585;BME280;7180;52.742;11.420;2023-05-07T04:03:08;101664.72;;;9.27;98.74
8585;BME280;7180;52.742;11.420;2023-05-07T04:05:33;101663.47;;;9.37;98.89
8585;BME280;7180;52.742;11.420;2023-05-07T04:07:59;101651.41;;;9.32;98.45
8585;BME280;7180;52.742;11.420;2023-05-07T04:10:24;101629.94;;;9.22;98.22
8585;BME280;7180;52.742;11.420;2023-05-07T04:12:49;101645.66;;;9.22;98.58
8585;BME280;7180;52.742;11.420;2023-05-07T04:15:15;101669.97;;;9.27;98.45
8585;BME280;7180;52.742;11.420;2023-05-07T04:17:40;101659.34;;;9.30;98.41
8585;BME280;7180;52.742;11.420;2023-05-07T04:20:09;101646.41;;;9.26;97.98
8585;BME280;7180;52.742;11.420;2023-05-07T04:22:34;101646.50;;;9.23;98.23
8585;BME280;7180;52.742;11.420;2023-05-07T04:24:59;101650.34;;;9.37;97.97
8585;BME280;7180;52.742;11.420;2023-05-07T04:27:25;101633.84;;;9.34;97.87
8585;BME280;7180;52.742;11.420;2023-05-07T04:29:51;101645.63;;;9.47;98.09
8585;BME280;7180;52.742;11.420;2023-05-07T04:32:16;101631.91;;;9.39;97.72
8585;BME280;7180;52.742;11.420;2023-05-07T04:34:42;101644.97;;;9.40;97.40
8585;BME280;7180;52.742;11.420;2023-05-07T04:37:08;101650.47;;;9.34;97.68
8585;BME280;7180;52.742;11.420;2023-05-07T04:39:33;101633.16;;;9.29;97.49
8585;BME280;7180;52.742;11.420;2023-05-07T04:42:00;101667.00;;;9.36;97.98
8585;BME280;7180;52.742;11.420;2023-05-07T04:44:25;101687.09;;;9.37;98.50
8585;BME280;7180;52.742;11.420;2023-05-07T04:46:51;101702.16;;;9.56;98.63
8585;BME280;7180;52.742;11.420;2023-05-07T04:49:16;101691.72;;;9.54;98.61
8585;BME280;7180;52.742;11.420;2023-05-07T04:51:41;101680.41;;;9.52;98.29
8585;BME280;7180;52.742;11.420;2023-05-07T04:54:08;101683.00;;;9.54;98.33
8585;BME280;7180;52.742;11.420;2023-05-07T04:56:33;101671.34;;;9.61;97.92
8585;BME280;7180;52.742;11.420;2023-05-07T04:58:58;101650.78;;;9.72;97.30
8585;BME280;7180;52.742;11.420;2023-05-07T05:01:23;101624.88;;;9.63;97.07
8585;BME280;7180;52.742;11.420;2023-05-07T05:03:49;101616.25;;;9.59;96.82
8585;BME280;7180;52.742;11.420;2023-05-07T05:06:14;101652.34;;;9.54;97.59
8585;BME280;7180;52.742;11.420;2023-05-07T05:08:39;101679.13;;;9.64;97.43
8585;BME280;7180;52.742;11.420;2023-05-07T05:11:05;101683.28;;;9.69;97.68
8585;BME280;7180;52.742;11.420;2023-05-07T05:13:30;101660.69;;;9.65;97.32
8585;BME280;7180;52.742;11.420;2023-05-07T05:15:55;101660.63;;;9.67;97.35
8585;BME280;7180;52.742;11.420;2023-05-07T05:18:21;101651.66;;;9.72;96.65
8585;BME280;7180;52.742;11.420;2023-05-07T05:20:46;101662.38;;;9.66;97.04
8585;BME280;7180;52.742;11.420;2023-05-07T05:23:11;101665.06;;;9.65;96.79
8585;BME280;7180;52.742;11.420;2023-05-07T05:25:37;101660.81;;;9.62;96.86
8585;BME280;7180;52.742;11.420;2023-05-07T05:28:04;101667.16;;;9.55;96.85
8585;BME280;7180;52.742;11.420;2023-05-07T05:30:29;101679.94;;;9.66;97.02
8585;BME280;7180;52.742;11.420;2023-05-07T05:32:54;101665.00;;;9.66;96.68
8585;BME280;7180;52.742;11.420;2023-05-07T05:35:20;101643.16;;;9.66;96.36
8585;BME280;7180;52.742;11.420;2023-05-07T05:37:45;101645.19;;;9.81;96.34
8585;BME280;7180;52.742;11.420;2023-05-07T05:40:10;101616.16;;;9.62;95.78
8585;BME280;7180;52.742;11.420;2023-05-07T05:42:36;101632.13;;;9.79;95.69
8585;BME280;7180;52.742;11.420;2023-05-07T05:45:01;101627.00;;;9.76;95.61
8585;BME280;7180;52.742;11.420;2023-05-07T05:47:26;101633.59;;;9.86;95.56
8585;BME280;7180;52.742;11.420;2023-05-07T05:49:52;101610.25;;;9.79;95.56
8585;BME280;7180;52.742;11.420;2023-05-07T05:52:17;101612.06;;;9.77;95.60
8585;BME280;7180;52.742;11.420;2023-05-07T05:54:42;101624.97;;;9.83;95.17
8585;BME280;7180;52.742;11.420;2023-05-07T05:57:08;101620.69;;;9.80;95.03
8585;BME280;7180;52.742;11.420;2023-05-07T05:59:33;101618.56;;;9.90;94.92
8585;BME280;7180;52.742;11.420;2023-05-07T06:01:58;101615.94;;;9.90;94.56
8585;BME280;7180;52.742;11.420;2023-05-07T06:04:24;101584.16;;;9.96;93.81
8585;BME280;7180;52.742;11.420;2023-05-07T06:06:49;101571.03;;;9.96;93.45
8585;BME280;7180;52.742;11.420;2023-05-07T06:09:14;101570.66;;;10.05;93.53
8585;BME280;7180;52.742;11.420;2023-05-07T06:11:39;101595.81;;;10.12;93.48
8585;BME280;7180;52.742;11.420;2023-05-07T06:14:06;101600.72;;;9.98;93.68
8585;BME280;7180;52.742;11.420;2023-05-07T06:16:31;101573.03;;;10.12;92.88
8585;BME280;7180;52.742;11.420;2023-05-07T06:18:56;101561.50;;;10.15;92.88
8585;BME280;7180;52.742;11.420;2023-05-07T06:21:21;101554.69;;;10.11;92.46
8585;BME280;7180;52.742;11.420;2023-05-07T06:23:47;101540.38;;;9.96;92.59
8585;BME280;7180;52.742;11.420;2023-05-07T06:26:12;101571.69;;;10.01;93.09
8585;BME280;7180;52.742;11.420;2023-05-07T06:28:37;101569.72;;;10.06;92.98
8585;BME280;7180;52.742;11.420;2023-05-07T06:31:16;101586.31;;;10.29;93.18
8585;BME280;7180;52.742;11.420;2023-05-07T06:33:42;101582.78;;;10.51;92.61
8585;BME280;7180;52.742;11.420;2023-05-07T06:36:08;101523.53;;;10.42;91.55
8585;BME280;7180;52.742;11.420;2023-05-07T06:38:33;101500.59;;;10.45;90.85
8585;BME280;7180;52.742;11.420;2023-05-07T06:40:58;101526.03;;;10.65;90.91
8585;BME280;7180;52.742;11.420;2023-05-07T06:43:24;101523.44;;;10.84;90.74
8585;BME280;7180;52.742;11.420;2023-05-07T06:45:49;101453.88;;;10.71;89.70
8585;BME280;7180;52.742;11.420;2023-05-07T06:48:14;101436.75;;;10.62;89.01
8585;BME280;7180;52.742;11.420;2023-05-07T06:50:39;101438.47;;;10.63;89.11
8585;BME280;7180;52.742;11.420;2023-05-07T06:53:05;101377.75;;;10.68;88.03
8585;BME280;7180;52.742;11.420;2023-05-07T06:55:30;101330.72;;;10.43;87.35
8585;BME280;7180;52.742;11.420;2023-05-07T06:57:55;101391.63;;;10.14;87.92
8585;BME280;7180;52.742;11.420;2023-05-07T07:00:23;101472.53;;;10.26;89.16
8585;BME280;7180;52.742;11.420;2023-05-07T07:02:48;101495.63;;;10.39;89.36
8585;BME280;7180;52.742;11.420;2023-05-07T07:05:13;101523.81;;;10.36;90.13
8585;BME280;7180;52.742;11.420;2023-05-07T07:07:38;101540.91;;;10.66;89.77
8585;BME280;7180;52.742;11.420;2023-05-07T07:10:04;101498.56;;;10.52;89.80
8585;BME280;7180;52.742;11.420;2023-05-07T07:12:31;101518.91;;;10.49;89.81
8585;BME280;7180;52.742;11.420;2023-05-07T07:14:56;101522.31;;;10.30;90.30
8585;BME280;7180;52.742;11.420;2023-05-07T07:17:21;101522.25;;;10.32;90.08
8585;BME280;7180;52.742;11.420;2023-05-07T07:19:47;101515.59;;;10.43;89.96
8585;BME280;7180;52.742;11.420;2023-05-07T07:22:12;101493.03;;;10.38;89.60
8585;BME280;7180;52.742;11.420;2023-05-07T07:24:37;101509.22;;;10.49;90.04
8585;BME280;7180;52.742;11.420;2023-05-07T07:27:03;101513.09;;;10.61;89.88
8585;BME280;7180;52.742;11.420;2023-05-07T07:29:28;101492.53;;;10.50;89.68
8585;BME280;7180;52.742;11.420;2023-05-07T07:31:53;101514.38;;;10.71;89.74
8585;BME280;7180;52.742;11.420;2023-05-07T07:34:18;101499.56;;;10.50;89.80
8585;BME280;7180;52.742;11.420;2023-05-07T07:36:44;101508.34;;;10.69;89.45
8585;BME280;7180;52.742;11.420;2023-05-07T07:39:09;101439.91;;;10.70;88.85
8585;BME280;7180;52.742;11.420;2023-05-07T07:41:34;101443.25;;;10.74;88.31
8585;BME280;7180;52.742;11.420;2023-05-07T07:43:59;101423.78;;;10.78;88.15
8585;BME280;7180;52.742;11.420;2023-05-07T07:46:25;101423.63;;;10.81;87.98
8585;BME280;7180;52.742;11.420;2023-05-07T07:48:51;101410.44;;;10.62;87.51
8585;BME280;7180;52.742;11.420;2023-05-07T07:51:16;101435.63;;;10.68;87.63
8585;BME280;7180;52.742;11.420;2023-05-07T07:53:42;101420.69;;;10.68;87.69
8585;BME280;7180;52.742;11.420;2023-05-07T07:56:07;101476.88;;;10.86;88.09
8585;BME280;7180;52.742;11.420;2023-05-07T07:58:32;101413.38;;;10.93;87.08
8585;BME280;7180;52.742;11.420;2023-05-07T08:00:57;101404.06;;;10.86;86.90
8585;BME280;7180;52.742;11.420;2023-05-07T08:03:23;101360.56;;;10.79;86.45
8585;BME280;7180;52.742;11.420;2023-05-07T08:05:48;101450.28;;;10.73;87.78
8585;BME280;7180;52.742;11.420;2023-05-07T08:08:16;101444.91;;;10.56;88.03
8585;BME280;7180;52.742;11.420;2023-05-07T08:10:41;101436.06;;;10.77;87.64
8585;BME280;7180;52.742;11.420;2023-05-07T08:13:06;101448.69;;;10.69;87.58
8585;BME280;7180;52.742;11.420;2023-05-07T08:15:32;101440.88;;;10.68;87.61
8585;BME280;7180;52.742;11.420;2023-05-07T08:17:58;101481.78;;;10.55;88.30
8585;BME280;7180;52.742;11.420;2023-05-07T08:20:25;101489.81;;;10.52;88.64
8585;BME280;7180;52.742;11.420;2023-05-07T08:22:51;101525.78;;;10.51;89.08
8585;BME280;7180;52.742;11.420;2023-05-07T08:25:16;101571.41;;;10.70;89.62
8585;BME280;7180;52.742;11.420;2023-05-07T08:27:41;101555.88;;;10.64;89.64
8585;BME280;7180;52.742;11.420;2023-05-07T08:30:07;101555.34;;;10.56;89.44
8585;BME280;7180;52.742;11.420;2023-05-07T08:32:33;101595.88;;;10.72;90.15
8585;BME280;7180;52.742;11.420;2023-05-07T08:34:58;101565.91;;;10.95;89.19
8585;BME280;7180;52.742;11.420;2023-05-07T08:37:23;101564.88;;;10.99;89.19
8585;BME280;7180;52.742;11.420;2023-05-07T08:39:49;101499.94;;;11.18;88.17
8585;BME280;7180;52.742;11.420;2023-05-07T08:42:16;101472.72;;;11.36;87.54
8585;BME280;7180;52.742;11.420;2023-05-07T08:44:45;101417.75;;;11.30;86.79
8585;BME280;7180;52.742;11.420;2023-05-07T08:47:12;101415.03;;;11.31;86.56
8585;BME280;7180;52.742;11.420;2023-05-07T08:49:37;101425.97;;;11.41;86.54
8585;BME280;7180;52.742;11.420;2023-05-07T08:52:03;101386.47;;;11.41;85.66
8585;BME280;7180;52.742;11.420;2023-05-07T08:54:28;101427.28;;;11.14;86.47
8585;BME280;7180;52.742;11.420;2023-05-07T08:56:54;101442.53;;;11.07;86.77
8585;BME280;7180;52.742;11.420;2023-05-07T08:59:20;101434.44;;;11.12;86.39
8585;BME280;7180;52.742;11.420;2023-05-07T09:01:45;101431.91;;;11.27;86.14
8585;BME280;7180;52.742;11.420;2023-05-07T09:04:10;101466.34;;;11.23;86.72
8585;BME280;7180;52.742;11.420;2023-05-07T09:06:37;101529.09;;;11.50;86.85
8585;BME280;7180;52.742;11.420;2023-05-07T09:09:06;101496.78;;;11.66;86.66
8585;BME280;7180;52.742;11.420;2023-05-07T09:11:32;101452.00;;;11.83;85.75
8585;BME280;7180;52.742;11.420;2023-05-07T09:13:58;101402.88;;;11.29;85.65
8585;BME280;7180;52.742;11.420;2023-05-07T09:16:26;101475.72;;;11.47;86.35
8585;BME280;7180;52.742;11.420;2023-05-07T09:18:53;101459.94;;;11.64;85.66
8585;BME280;7180;52.742;11.420;2023-05-07T09:21:20;101382.97;;;11.76;84.87
8585;BME280;7180;52.742;11.420;2023-05-07T09:23:48;101347.25;;;11.88;84.15
8585;BME280;7180;52.742;11.420;2023-05-07T09:26:14;101301.69;;;11.69;83.81
8585;BME280;7180;52.742;11.420;2023-05-07T09:28:40;101277.28;;;11.48;83.74
8585;BME280;7180;52.742;11.420;2023-05-07T09:31:07;101371.78;;;12.05;83.57
8585;BME280;7180;52.742;11.420;2023-05-07T09:33:32;101242.66;;;11.88;82.46
8585;BME280;7180;52.742;11.420;2023-05-07T09:35:57;101237.81;;;11.64;82.69
8585;BME280;7180;52.742;11.420;2023-05-07T09:38:23;101329.25;;;12.11;82.84
8585;BME280;7180;52.742;11.420;2023-05-07T09:41:01;101205.06;;;12.33;81.27
8585;BME280;7180;52.742;11.420;2023-05-07T09:43:31;101216.31;;;12.66;80.38
8585;BME280;7180;52.742;11.420;2023-05-07T09:45:58;101137.97;;;12.82;79.11
8585;BME280;7180;52.742;11.420;2023-05-07T09:48:25;101090.53;;;12.37;79.46
8585;BME280;7180;52.742;11.420;2023-05-07T09:50:52;101154.72;;;12.67;79.42
8585;BME280;7180;52.742;11.420;2023-05-07T09:53:21;101116.34;;;12.62;78.99
8585;BME280;7180;52.742;11.420;2023-05-07T09:55:47;101109.75;;;12.39;79.46
8585;BME280;7180;52.742;11.420;2023-05-07T09:58:14;101151.47;;;12.32;79.87
8585;BME280;7180;52.742;11.420;2023-05-07T10:00:40;101153.19;;;12.18;80.41
8585;BME280;7180;52.742;11.420;2023-05-07T10:03:08;101267.91;;;12.56;81.05
8585;BME280;7180;52.742;11.420;2023-05-07T10:05:34;101138.06;;;12.06;80.44
8585;BME280;7180;52.742;11.420;2023-05-07T10:08:00;101206.66;;;12.35;80.40
8585;BME280;7180;52.742;11.420;2023-05-07T10:10:26;101266.63;;;12.47;81.02
8585;BME280;7180;52.742;11.420;2023-05-07T10:12:52;101147.34;;;12.42;79.83
8585;BME280;7180;52.742;11.420;2023-05-07T10:15:19;101136.28;;;12.51;79.28
8585;BME280;7180;52.742;11.420;2023-05-07T10:17:44;101065.50;;;12.44;79.49
8585;BME280;7180;52.742;11.420;2023-05-07T10:20:10;101201.69;;;12.76;79.80
8585;BME280;7180;52.742;11.420;2023-05-07T10:22:41;101049.56;;;12.75;78.52
8585;BME280;7180;52.742;11.420;2023-05-07T10:25:16;101122.34;;;12.79;79.24
8585;BME280;7180;52.742;11.420;2023-05-07T10:27:43;101034.34;;;13.08;77.62
8585;BME280;7180;52.742;11.420;2023-05-07T10:30:20;101013.22;;;13.22;77.17
8585;BME280;7180;52.742;11.420;2023-05-07T10:32:55;101046.88;;;13.33;77.27
8585;BME280;7180;52.742;11.420;2023-05-07T10:35:24;100996.41;;;13.37;76.34
8585;BME280;7180;52.742;11.420;2023-05-07T10:37:51;100915.72;;;13.46;75.75
8585;BME280;7180;52.742;11.420;2023-05-07T10:40:17;101077.13;;;13.41;77.23
8585;BME280;7180;52.742;11.420;2023-05-07T10:42:58;101079.19;;;13.50;77.34
8585;BME280;7180;52.742;11.420;2023-05-07T10:45:28;100975.88;;;13.82;75.79
8585;BME280;7180;52.742;11.420;2023-05-07T10:48:20;101025.28;;;13.40;76.99
8585;BME280;7180;52.742;11.420;2023-05-07T10:50:45;100938.84;;;13.69;75.63
8585;BME280;7180;52.742;11.420;2023-05-07T10:55:42;100945.56;;;14.39;74.22
8585;BME280;7180;52.742;11.420;2023-05-07T10:58:23;100876.94;;;14.86;72.88
8585;BME280;7180;52.742;11.420;2023-05-07T11:00:49;100842.41;;;15.11;72.07
8585;BME280;7180;52.742;11.420;2023-05-07T11:03:14;100677.38;;;14.16;71.60
8585;BME280;7180;52.742;11.420;2023-05-07T11:05:41;100654.28;;;13.95;71.82
8585;BME280;7180;52.742;11.420;2023-05-07T11:08:08;100784.75;;;14.44;71.79
8585;BME280;7180;52.742;11.420;2023-05-07T11:10:53;100631.44;;;14.30;71.03
8585;BME280;7180;52.742;11.420;2023-05-07T11:13:42;100773.97;;;13.97;73.07
8585;BME280;7180;52.742;11.420;2023-05-07T11:16:20;100839.47;;;14.80;72.27
8585;BME280;7180;52.742;11.420;2023-05-07T11:18:47;100754.81;;;15.14;71.34
8585;BME280;7180;52.742;11.420;2023-05-07T11:21:13;100713.38;;;15.13;70.80
8585;BME280;7180;52.742;11.420;2023-05-07T11:23:57;100648.19;;;15.23;70.05
8585;BME280;7180;52.742;11.420;2023-05-07T11:26:22;100548.47;;;13.84;71.51
8585;BME280;7180;52.742;11.420;2023-05-07T11:28:48;100609.00;;;13.99;71.47
8585;BME280;7180;52.742;11.420;2023-05-07T11:31:13;100805.44;;;14.25;72.44
8585;BME280;7180;52.742;11.420;2023-05-07T11:33:40;100664.16;;;14.29;71.41
8585;BME280;7180;52.742;11.420;2023-05-07T11:36:07;100725.03;;;13.91;72.73
8585;BME280;7180;52.742;11.420;2023-05-07T11:38:36;100790.13;;;14.05;73.26
8585;BME280;7180;52.742;11.420;2023-05-07T11:41:02;100723.44;;;13.76;72.93
8585;BME280;7180;52.742;11.420;2023-05-07T11:43:30;100631.78;;;13.77;71.94
8585;BME280;7180;52.742;11.420;2023-05-07T11:46:05;100811.81;;;13.85;73.47
8585;BME280;7180;52.742;11.420;2023-05-07T11:48:30;100766.34;;;13.80;72.89
8585;BME280;7180;52.742;11.420;2023-05-07T11:51:00;100770.56;;;14.07;72.54
8585;BME280;7180;52.742;11.420;2023-05-07T11:53:26;100768.44;;;14.37;72.19
8585;BME280;7180;52.742;11.420;2023-05-07T11:55:53;100815.66;;;14.80;71.79
8585;BME280;7180;52.742;11.420;2023-05-07T11:58:22;100693.09;;;14.90;70.76
8585;BME280;7180;52.742;11.420;2023-05-07T12:00:48;100670.88;;;15.49;69.54
8585;BME280;7180;52.742;11.420;2023-05-07T12:03:14;100605.69;;;15.58;69.24
8585;BME280;7180;52.742;11.420;2023-05-07T12:05:39;100526.19;;;14.92;69.66
8585;BME280;7180;52.742;11.420;2023-05-07T12:08:06;100609.25;;;15.02;69.88
8585;BME280;7180;52.742;11.420;2023-05-07T12:10:32;100527.28;;;14.89;69.30
8585;BME280;7180;52.742;11.420;2023-05-07T12:12:57;100643.19;;;15.08;69.92
8585;BME280;7180;52.742;11.420;2023-05-07T12:15:22;100553.66;;;15.02;69.60
8585;BME280;7180;52.742;11.420;2023-05-07T12:17:48;100673.97;;;15.32;70.46
8585;BME280;7180;52.742;11.420;2023-05-07T12:20:13;100702.78;;;15.48;70.54
8585;BME280;7180;52.742;11.420;2023-05-07T12:22:40;100505.84;;;15.36;68.74
8585;BME280;7180;52.742;11.420;2023-05-07T12:25:06;100432.13;;;15.52;67.48
8585;BME280;7180;52.742;11.420;2023-05-07T12:27:31;100284.78;;;14.98;67.06
8585;BME280;7180;52.742;11.420;2023-05-07T12:29:57;100463.25;;;15.06;68.51
8585;BME280;7180;52.742;11.420;2023-05-07T12:32:23;100583.41;;;15.16;69.25
8585;BME280;7180;52.742;11.420;2023-05-07T12:34:51;100501.75;;;15.54;68.04
8585;BME280;7180;52.742;11.420;2023-05-07T12:37:23;100577.84;;;15.86;68.22
8585;BME280;7180;52.742;11.420;2023-05-07T12:40:08;100537.41;;;15.62;68.43
8585;BME280;7180;52.742;11.420;2023-05-07T12:42:40;100433.09;;;15.63;67.81
8585;BME280;7180;52.742;11.420;2023-05-07T12:45:12;100448.53;;;15.46;68.04
8585;BME280;7180;52.742;11.420;2023-05-07T12:47:37;100413.75;;;15.29;67.27
8585;BME280;7180;52.742;11.420;2023-05-07T12:50:05;100432.19;;;14.86;68.57
8585;BME280;7180;52.742;11.420;2023-05-07T12:52:31;100549.44;;;15.10;69.12
8585;BME280;7180;52.742;11.420;2023-05-07T12:54:56;100550.88;;;15.03;69.40
8585;BME280;7180;52.742;11.420;2023-05-07T12:57:29;100510.19;;;15.04;69.00
8585;BME280;7180;52.742;11.420;2023-05-07T12:59:57;100624.56;;;15.20;69.63
8585;BME280;7180;52.742;11.420;2023-05-07T13:02:32;100557.81;;;14.93;69.90